Terminal Aerodrome Forecast
Issued by NWS North Platte, NE

Home | Current Version | Previous Version | Graphics & Text | Print | Product List | Glossary On
Versions: 1 2 3 4 5 6 7 8 9 10 11 12 13 14 15 16 17 18 19 20 21 22 23 24 25
000
FTUS43 KLBF 260300 AAB
TAFVTN
TAF AMD
KVTN 260334Z 2604/2624 36015KT P6SM SCT020 OVC100
      TEMPO 2604/2606 OVC020
     FM260900 34008KT P6SM SCT100
     FM261600 35013KT P6SM SKC=

USA.gov is the U.S. government's official web portal to all federal, state and local government web resources and services.